createdAt,value
2018-07-10T00:00:08.302Z,82.11
2018-07-10T00:02:47.289Z,82.82
2018-07-10T00:06:45.266Z,84.32
2018-07-10T00:09:24.156Z,84.06
2018-07-10T00:11:52.380Z,83.82
2018-07-10T00:14:20.285Z,83.67
2018-07-10T00:16:48.189Z,83.99
2018-07-10T00:19:16.061Z,84.20
2018-07-10T00:21:44.029Z,83.27
2018-07-10T00:24:11.930Z,83.26
2018-07-10T00:26:39.798Z,84.26
2018-07-10T00:29:07.953Z,83.73
2018-07-10T00:31:35.842Z,84.37
2018-07-10T00:34:03.720Z,84.69
2018-07-10T00:36:31.723Z,84.83
2018-07-10T00:39:01.674Z,84.93
2018-07-10T00:41:33.060Z,84.58
2018-07-10T00:44:01.706Z,83.68
2018-07-10T00:46:30.804Z,84.19
2018-07-10T00:48:58.857Z,84.09
2018-07-10T00:51:27.563Z,84.39
2018-07-10T00:53:55.526Z,84.02
2018-07-10T00:56:23.498Z,84.41
2018-07-10T00:58:52.993Z,84.00
2018-07-10T01:01:21.942Z,83.08
2018-07-10T01:03:50.137Z,82.84
2018-07-10T01:06:18.298Z,82.85
2018-07-10T01:08:47.032Z,82.33
2018-07-10T01:11:16.061Z,82.43
2018-07-10T01:13:44.914Z,82.93
2018-07-10T01:16:13.674Z,83.27
2018-07-10T01:18:43.649Z,84.00
2018-07-10T01:21:16.498Z,83.69
2018-07-10T01:23:44.549Z,83.78
2018-07-10T01:26:13.160Z,83.78
2018-07-10T01:28:41.913Z,83.42
2018-07-10T01:31:10.187Z,82.72
2018-07-10T01:33:38.246Z,83.02
2018-07-10T01:36:07.074Z,82.84
2018-07-10T01:38:35.858Z,83.69
2018-07-10T01:41:04.327Z,83.21
2018-07-10T01:43:32.618Z,83.13
2018-07-10T01:46:00.749Z,82.46
2018-07-10T01:48:28.604Z,83.04
2018-07-10T01:50:56.471Z,82.30
2018-07-10T01:53:24.538Z,82.54
2018-07-10T01:55:52.502Z,82.60
2018-07-10T01:58:20.742Z,81.80
2018-07-10T02:00:48.838Z,81.00
2018-07-10T02:03:16.777Z,81.47
2018-07-10T02:05:44.645Z,81.21
2018-07-10T02:08:12.528Z,82.59
2018-07-10T02:10:40.471Z,82.53
2018-07-10T02:13:08.661Z,82.84
2018-07-10T02:15:36.662Z,82.89
2018-07-10T02:18:04.629Z,82.05
2018-07-10T02:21:07.437Z,83.00
2018-07-10T02:23:43.444Z,83.05
2018-07-10T02:26:17.745Z,83.32
2018-07-10T02:28:45.757Z,82.75
2018-07-10T02:31:13.750Z,82.88
2018-07-10T02:33:41.701Z,81.04
2018-07-10T02:36:09.710Z,81.49
2018-07-10T02:38:40.975Z,81.35
2018-07-10T02:41:10.844Z,81.26
2018-07-10T02:43:38.857Z,81.44
2018-07-10T02:46:07.176Z,81.01
2018-07-10T02:48:35.454Z,81.83
2018-07-10T02:51:05.683Z,80.98
2018-07-10T02:53:35.602Z,81.16
2018-07-10T02:56:03.968Z,81.68
2018-07-10T02:58:33.948Z,82.45
2018-07-10T03:01:02.833Z,82.05
2018-07-10T03:03:31.751Z,81.72
2018-07-10T03:05:59.755Z,81.19
2018-07-10T03:08:27.825Z,81.07
2018-07-10T03:10:55.843Z,81.97
2018-07-10T03:13:24.679Z,82.07
2018-07-10T03:15:53.747Z,81.41
2018-07-10T03:18:21.790Z,80.51
2018-07-10T03:20:49.829Z,81.12
2018-07-10T03:23:17.884Z,80.04
2018-07-10T03:25:45.972Z,80.44
2018-07-10T03:28:14.019Z,80.91
2018-07-10T03:30:42.046Z,81.46
2018-07-10T03:33:10.069Z,81.26
2018-07-10T03:35:38.058Z,81.62
2018-07-10T03:38:06.094Z,81.91
2018-07-10T03:40:34.137Z,81.11
2018-07-10T03:43:02.197Z,80.72
2018-07-10T03:45:30.178Z,80.23
2018-07-10T03:47:58.705Z,80.44
2018-07-10T03:50:27.429Z,81.09
2018-07-10T03:52:55.470Z,80.11
2018-07-10T03:55:24.343Z,80.75
2018-07-10T03:57:54.331Z,80.51
2018-07-10T04:00:22.352Z,79.99
2018-07-10T04:02:51.407Z,79.91
2018-07-10T04:05:20.662Z,80.37
2018-07-10T04:07:54.081Z,80.01
2018-07-10T04:10:26.861Z,80.98
2018-07-10T04:12:56.346Z,80.49
2018-07-10T04:15:24.329Z,80.75
2018-07-10T04:18:03.977Z,79.77
2018-07-10T04:20:41.961Z,79.28
2018-07-10T04:23:10.022Z,78.43
2018-07-10T04:25:47.880Z,78.12
2018-07-10T04:28:21.455Z,78.61
2018-07-10T04:31:32.770Z,78.32
2018-07-10T04:34:00.845Z,77.47
2018-07-10T04:36:28.959Z,77.77
2018-07-10T04:38:58.262Z,75.14
2018-07-10T04:41:29.682Z,74.53
2018-07-10T04:44:09.807Z,75.77
2018-07-10T04:46:41.448Z,74.86
2018-07-10T04:49:20.473Z,74.05
2018-07-10T04:51:54.583Z,75.95
2018-07-10T04:54:34.034Z,73.67
2018-07-10T04:57:08.452Z,74.18
2018-07-10T04:59:36.773Z,74.75
2018-07-10T05:02:05.441Z,74.09
2018-07-10T05:04:33.453Z,75.55
2018-07-10T05:07:06.884Z,72.88
2018-07-10T05:09:35.851Z,73.40
2018-07-10T05:12:04.210Z,73.83
2018-07-10T05:14:32.259Z,72.92
2018-07-10T05:17:00.586Z,73.55
2018-07-10T05:19:28.711Z,74.65
2018-07-10T05:21:56.706Z,73.90
2018-07-10T05:24:24.756Z,73.39
2018-07-10T05:26:52.759Z,73.37
2018-07-10T05:29:20.785Z,72.26
2018-07-10T05:31:49.134Z,73.28
2018-07-10T05:34:17.149Z,72.90
2018-07-10T05:36:45.209Z,70.48
2018-07-10T05:39:13.224Z,71.27
2018-07-10T05:41:45.160Z,71.48
2018-07-10T05:44:18.861Z,70.93
2018-07-10T05:46:47.281Z,72.74
2018-07-10T05:49:15.790Z,73.73
2018-07-10T05:51:47.363Z,73.80
2018-07-10T05:54:15.482Z,74.27
2018-07-10T05:56:43.539Z,75.52
2018-07-10T05:59:11.769Z,73.70
2018-07-10T06:01:40.934Z,76.80
2018-07-10T06:04:11.561Z,77.73
2018-07-10T06:06:39.946Z,76.59
2018-07-10T06:09:07.978Z,75.99
2018-07-10T06:11:36.414Z,75.94
2018-07-10T06:14:04.444Z,73.77
2018-07-10T06:16:33.254Z,71.86
2018-07-10T06:19:01.250Z,71.04
2018-07-10T06:21:41.878Z,71.82
2018-07-10T06:24:11.554Z,73.38
2018-07-10T06:26:41.070Z,73.76
2018-07-10T06:29:09.486Z,74.04
2018-07-10T06:31:51.040Z,75.01
2018-07-10T06:34:20.476Z,73.30
2018-07-10T06:36:57.313Z,73.53
2018-07-10T06:39:25.361Z,73.19
2018-07-10T06:41:58.893Z,73.12
2018-07-10T06:44:26.921Z,72.74
2018-07-10T06:46:58.457Z,71.31
2018-07-10T06:49:32.046Z,72.01
2018-07-10T06:52:11.752Z,68.84
2018-07-10T06:54:46.251Z,68.16
2018-07-10T06:57:14.488Z,67.55
2018-07-10T06:59:42.453Z,69.45
2018-07-10T07:02:10.886Z,70.10
2018-07-10T07:04:38.897Z,70.21
2018-07-10T07:07:07.239Z,70.26
2018-07-10T07:09:35.663Z,71.20
2018-07-10T07:12:03.707Z,71.07
2018-07-10T07:14:31.682Z,72.26
2018-07-10T07:16:59.681Z,71.83
2018-07-10T07:19:27.793Z,70.12
2018-07-10T07:21:55.810Z,71.76
2018-07-10T07:24:23.820Z,71.95
2018-07-10T07:26:51.830Z,69.22
2018-07-10T07:29:19.835Z,67.81
2018-07-10T07:31:48.149Z,69.10
2018-07-10T07:34:16.128Z,67.76
2018-07-10T07:36:44.033Z,66.75
2018-07-10T07:39:12.042Z,62.54
2018-07-10T07:41:40.161Z,63.33
2018-07-10T07:44:08.343Z,62.79
2018-07-10T07:46:36.294Z,62.26
2018-07-10T07:49:04.326Z,59.45
2018-07-10T07:51:32.295Z,62.16
2018-07-10T07:54:00.755Z,63.47
2018-07-10T07:56:28.784Z,62.83
2018-07-10T07:58:57.138Z,64.67
2018-07-10T08:01:25.474Z,64.80
2018-07-10T08:03:54.615Z,63.30
2018-07-10T08:06:22.696Z,64.51
2018-07-10T08:08:50.900Z,62.68
2018-07-10T08:11:19.184Z,58.38
2018-07-10T08:13:47.643Z,54.59
2018-07-10T08:16:16.286Z,53.13
2018-07-10T08:18:44.459Z,56.03
2018-07-10T08:21:12.651Z,53.97
2018-07-10T08:23:41.137Z,48.71
2018-07-10T08:26:09.358Z,49.71
2018-07-10T08:28:37.415Z,47.65
2018-07-10T08:31:05.550Z,47.58
2018-07-10T08:33:33.853Z,45.27
2018-07-10T08:36:02.008Z,48.50
2018-07-10T08:38:39.528Z,51.46
2018-07-10T08:41:12.755Z,52.91
2018-07-10T08:43:41.015Z,51.85
2018-07-10T08:46:09.205Z,55.03
2018-07-10T08:48:37.899Z,58.01
2018-07-10T08:51:06.158Z,55.76
2018-07-10T08:53:34.303Z,53.30
2018-07-10T08:56:02.496Z,49.82
2018-07-10T08:58:30.773Z,52.82
2018-07-10T09:00:58.964Z,49.58
2018-07-10T09:03:27.160Z,50.57
2018-07-10T09:05:55.338Z,51.40
2018-07-10T09:08:23.540Z,47.95
2018-07-10T09:10:52.075Z,51.68
2018-07-10T09:13:20.366Z,52.55
2018-07-10T09:15:48.705Z,51.16
2018-07-10T09:18:16.932Z,49.62
2018-07-10T09:20:49.514Z,52.68
2018-07-10T09:23:19.127Z,55.11
2018-07-10T09:25:48.514Z,50.69
2018-07-10T09:28:16.728Z,45.53
2018-07-10T09:30:44.951Z,47.77
2018-07-10T09:33:13.188Z,49.23
2018-07-10T09:35:41.286Z,48.08
2018-07-10T09:38:09.334Z,46.43
2018-07-10T09:40:37.623Z,49.42
2018-07-10T09:43:06.489Z,56.95
2018-07-10T09:45:36.494Z,58.42
2018-07-10T09:48:05.659Z,60.97
2018-07-10T09:50:33.865Z,62.07
2018-07-10T09:53:02.677Z,61.43
2018-07-10T09:55:31.041Z,60.48
2018-07-10T09:58:00.841Z,61.45
2018-07-10T10:00:34.468Z,61.23
2018-07-10T10:03:03.492Z,58.66
2018-07-10T10:05:43.288Z,56.27
2018-07-10T10:08:12.461Z,51.94
2018-07-10T10:10:41.060Z,55.04
2018-07-10T10:13:09.496Z,54.16
2018-07-10T10:15:37.980Z,52.08
2018-07-10T10:18:07.908Z,49.99
2018-07-10T10:20:38.431Z,47.55
2018-07-10T10:23:06.659Z,47.51
2018-07-10T10:25:37.315Z,49.40
2018-07-10T10:28:07.009Z,50.99
2018-07-10T10:30:36.297Z,52.97
2018-07-10T10:33:05.094Z,48.62
2018-07-10T10:35:33.172Z,52.51
2018-07-10T10:38:02.397Z,51.61
2018-07-10T10:40:33.142Z,49.43
2018-07-10T10:43:04.342Z,46.16
2018-07-10T10:45:35.301Z,44.26
2018-07-10T10:48:03.797Z,44.66
2018-07-10T10:50:31.886Z,42.53
2018-07-10T10:53:00.176Z,43.99
2018-07-10T10:55:28.278Z,51.40
2018-07-10T10:57:56.445Z,50.29
2018-07-10T11:00:25.277Z,51.46
2018-07-10T11:02:53.450Z,51.45
2018-07-10T11:05:21.709Z,51.97
2018-07-10T11:07:49.872Z,55.36
2018-07-10T11:10:18.905Z,56.01
2018-07-10T11:12:47.413Z,55.30
2018-07-10T11:15:15.601Z,56.96
2018-07-10T11:17:51.123Z,57.70
2018-07-10T11:20:58.371Z,56.19
2018-07-10T11:23:56.405Z,55.31
2018-07-10T11:26:34.940Z,51.42
2018-07-10T11:29:04.580Z,49.00
2018-07-10T11:31:33.401Z,45.29
2018-07-10T11:34:01.669Z,43.32
2018-07-10T11:36:29.805Z,42.83
2018-07-10T11:39:05.784Z,46.08
2018-07-10T11:44:10.411Z,43.22
2018-07-10T11:46:39.110Z,43.46
2018-07-10T11:49:07.364Z,43.79
2018-07-10T11:51:35.539Z,47.62
2018-07-10T11:54:04.026Z,49.21
2018-07-10T11:56:32.252Z,49.22
2018-07-10T11:59:00.750Z,49.71
2018-07-10T12:01:29.782Z,52.49
2018-07-10T12:03:58.485Z,50.90
2018-07-10T12:06:26.750Z,53.83
2018-07-10T12:08:56.965Z,57.26
2018-07-10T12:11:27.251Z,64.92
2018-07-10T12:13:55.397Z,69.59
2018-07-10T12:16:24.311Z,70.89
2018-07-10T12:18:52.535Z,72.43
2018-07-10T12:21:21.027Z,73.00
2018-07-10T12:23:49.389Z,72.22
2018-07-10T12:26:17.516Z,70.31
2018-07-10T12:28:46.264Z,71.60
2018-07-10T12:31:14.815Z,69.85
2018-07-10T12:33:42.875Z,65.69
2018-07-10T12:36:10.831Z,66.17
2018-07-10T12:38:38.866Z,63.45
2018-07-10T12:41:06.947Z,60.76
2018-07-10T12:43:35.008Z,61.47
2018-07-10T12:46:03.034Z,63.19
2018-07-10T12:48:31.037Z,60.31
2018-07-10T12:50:59.983Z,56.86
2018-07-10T12:53:28.055Z,56.96
2018-07-10T12:55:58.668Z,56.56
2018-07-10T12:58:26.691Z,57.05
2018-07-10T13:00:55.396Z,57.70
2018-07-10T13:03:23.621Z,58.80
2018-07-10T13:05:55.914Z,56.56
2018-07-10T13:08:23.942Z,56.81
2018-07-10T13:10:51.955Z,57.13
2018-07-10T13:13:20.030Z,55.85
2018-07-10T13:15:48.002Z,56.76
2018-07-10T13:18:19.355Z,56.96
2018-07-10T13:20:47.378Z,56.69
2018-07-10T13:23:15.397Z,58.53
2018-07-10T13:25:43.433Z,57.59
2018-07-10T13:28:11.366Z,55.53
2018-07-10T13:30:39.355Z,55.74
2018-07-10T13:33:07.364Z,54.85
2018-07-10T13:35:35.748Z,53.12
2018-07-10T13:38:04.443Z,51.63
2018-07-10T13:40:33.876Z,53.32
2018-07-10T13:43:01.934Z,58.06
2018-07-10T13:45:30.898Z,59.91
2018-07-10T13:47:58.934Z,58.92
2018-07-10T13:50:29.022Z,59.59
2018-07-10T13:52:58.121Z,58.58
2018-07-10T13:55:26.645Z,55.68
2018-07-10T13:58:05.071Z,54.13
2018-07-10T14:00:35.962Z,54.73
2018-07-10T14:03:04.278Z,56.07
2018-07-10T14:05:32.295Z,53.86
2018-07-10T14:08:00.346Z,52.62
2018-07-10T14:10:28.357Z,52.57
2018-07-10T14:12:57.370Z,52.05
2018-07-10T14:15:26.241Z,51.76
2018-07-10T14:17:54.433Z,49.56
2018-07-10T14:20:22.730Z,51.37
2018-07-10T14:22:50.759Z,49.54
2018-07-10T14:25:19.094Z,51.25
2018-07-10T14:27:47.054Z,52.47
2018-07-10T14:30:15.047Z,50.31
2018-07-10T14:32:43.367Z,48.46
2018-07-10T14:35:11.473Z,47.92
2018-07-10T14:37:39.751Z,48.18
2018-07-10T14:40:07.830Z,46.98
2018-07-10T14:42:37.281Z,46.65
2018-07-10T14:45:05.998Z,48.00
2018-07-10T14:47:37.219Z,48.51
2018-07-10T14:50:05.259Z,53.22
2018-07-10T14:52:33.261Z,51.41
2018-07-10T14:55:01.313Z,50.20
2018-07-10T14:57:29.435Z,49.56
2018-07-10T14:59:57.481Z,51.74
2018-07-10T15:02:25.809Z,51.98
2018-07-10T15:04:53.813Z,52.25
2018-07-10T15:07:21.706Z,51.57
2018-07-10T15:09:49.609Z,51.37
2018-07-10T15:12:17.521Z,51.21
2018-07-10T15:14:45.639Z,50.55
2018-07-10T15:17:19.274Z,51.33
2018-07-10T15:19:47.855Z,48.83
2018-07-10T15:22:15.754Z,48.41
2018-07-10T15:24:44.698Z,47.76
2018-07-10T15:27:12.618Z,47.88
2018-07-10T15:29:40.529Z,45.54
2018-07-10T15:32:08.499Z,44.29
2018-07-10T15:34:37.276Z,44.32
2018-07-10T15:37:05.253Z,47.73
2018-07-10T15:39:33.220Z,47.59
2018-07-10T15:42:01.187Z,48.19
2018-07-10T15:44:29.105Z,48.30
2018-07-10T15:46:56.982Z,46.38
2018-07-10T15:49:24.901Z,46.10
2018-07-10T15:51:52.830Z,46.66
2018-07-10T15:54:21.097Z,46.81
2018-07-10T15:56:49.023Z,47.69
2018-07-10T15:59:16.943Z,47.05
2018-07-10T16:01:45.011Z,44.45
2018-07-10T16:04:13.066Z,44.65
2018-07-10T16:06:41.603Z,44.65
2018-07-10T16:09:16.805Z,45.13
2018-07-10T16:11:45.279Z,47.42
2018-07-10T16:14:13.726Z,48.73
2018-07-10T16:16:42.093Z,48.34
2018-07-10T16:19:22.194Z,48.02
2018-07-10T16:22:06.086Z,48.24
2018-07-10T16:24:38.581Z,48.35
2018-07-10T16:27:06.654Z,47.87
2018-07-10T16:29:34.686Z,48.56
2018-07-10T16:32:06.061Z,48.64
2018-07-10T16:34:34.105Z,47.70
2018-07-10T16:37:03.116Z,48.38
2018-07-10T16:39:31.361Z,48.91
2018-07-10T16:42:05.001Z,49.20
2018-07-10T16:44:33.065Z,49.31
2018-07-10T16:47:07.068Z,50.62
2018-07-10T16:49:46.702Z,50.03
2018-07-10T16:52:21.806Z,51.18
2018-07-10T16:54:49.954Z,50.70
2018-07-10T16:57:17.990Z,51.57
2018-07-10T16:59:46.134Z,51.62
2018-07-10T17:02:14.218Z,52.74
2018-07-10T17:04:42.517Z,53.37
2018-07-10T17:07:10.682Z,55.64
2018-07-10T17:09:38.686Z,57.01
2018-07-10T17:12:06.661Z,57.82
2018-07-10T17:14:34.597Z,58.09
2018-07-10T17:17:02.674Z,60.05
2018-07-10T17:19:30.677Z,60.82
2018-07-10T17:21:58.582Z,61.44
2018-07-10T17:24:26.565Z,61.22
2018-07-10T17:26:54.673Z,62.71
2018-07-10T17:29:22.662Z,62.59
2018-07-10T17:31:50.707Z,62.89
2018-07-10T17:34:18.723Z,61.76
2018-07-10T17:36:46.754Z,62.00
2018-07-10T17:39:14.809Z,62.17
2018-07-10T17:41:42.840Z,63.55
2018-07-10T17:44:10.882Z,66.04
2018-07-10T17:46:39.162Z,65.65
2018-07-10T17:49:07.138Z,65.96
2018-07-10T17:51:35.114Z,65.81
2018-07-10T17:54:03.662Z,66.52
2018-07-10T17:56:31.746Z,66.58
2018-07-10T17:59:00.380Z,67.58
2018-07-10T18:01:28.467Z,67.21
2018-07-10T18:03:56.641Z,68.34
2018-07-10T18:06:24.586Z,69.05
2018-07-10T18:08:52.557Z,70.02
2018-07-10T18:11:20.564Z,69.83
2018-07-10T18:13:48.577Z,70.26
2018-07-10T18:16:16.522Z,71.28
2018-07-10T18:18:44.495Z,71.08
2018-07-10T18:21:12.502Z,71.50
2018-07-10T18:23:40.484Z,70.89
2018-07-10T18:26:08.371Z,70.54
2018-07-10T18:28:36.394Z,71.08
2018-07-10T18:31:04.450Z,70.78
2018-07-10T18:33:32.402Z,71.33
2018-07-10T18:36:00.942Z,71.37
2018-07-10T18:38:28.960Z,71.52
2018-07-10T18:40:57.037Z,71.59
2018-07-10T18:43:25.096Z,70.96
2018-07-10T18:45:53.058Z,71.21
2018-07-10T18:48:25.923Z,71.69
2018-07-10T18:50:54.181Z,72.20
2018-07-10T18:53:22.162Z,71.89
2018-07-10T18:55:50.669Z,72.29
2018-07-10T18:58:24.925Z,72.87
2018-07-10T19:01:03.071Z,73.11
2018-07-10T19:03:33.669Z,73.53
2018-07-10T19:06:06.477Z,74.89
2018-07-10T19:08:34.477Z,74.03
2018-07-10T19:11:02.918Z,74.51
2018-07-10T19:13:30.989Z,74.96
2018-07-10T19:15:59.287Z,73.04
2018-07-10T19:18:27.373Z,73.49
2018-07-10T19:21:05.576Z,73.24
2018-07-10T19:23:45.365Z,72.64
2018-07-10T19:26:14.048Z,72.75
2018-07-10T19:28:42.714Z,70.76
2018-07-10T19:31:17.398Z,72.15
2018-07-10T19:33:51.960Z,71.97
2018-07-10T19:36:21.189Z,72.10
2018-07-10T19:38:49.284Z,72.47
2018-07-10T19:41:19.666Z,72.30
2018-07-10T19:43:48.537Z,72.83
2018-07-10T19:46:16.677Z,71.77
2018-07-10T19:48:48.125Z,73.58
2018-07-10T19:51:16.681Z,72.82
2018-07-10T19:53:52.390Z,72.82
2018-07-10T19:56:21.185Z,72.96
2018-07-10T19:58:49.223Z,73.26
2018-07-10T20:01:29.475Z,73.88
2018-07-10T20:04:04.998Z,73.66
2018-07-10T20:06:39.745Z,73.65
2018-07-10T20:09:11.195Z,73.16
2018-07-10T20:11:45.456Z,74.34
2018-07-10T20:14:17.171Z,74.47
2018-07-10T20:16:51.700Z,75.12
2018-07-10T20:19:28.686Z,74.24
2018-07-10T20:24:09.945Z,75.30
2018-07-10T20:28:51.210Z,74.70
2018-07-10T20:31:28.091Z,75.68
2018-07-10T20:34:21.074Z,75.70
2018-07-10T20:36:53.370Z,75.29
2018-07-10T20:39:26.349Z,75.84
2018-07-10T20:41:54.413Z,76.32
2018-07-10T20:44:22.441Z,76.29
2018-07-10T20:47:00.578Z,74.97
2018-07-10T20:50:05.462Z,76.03
2018-07-10T20:53:00.134Z,75.65
2018-07-10T20:55:40.766Z,75.85
2018-07-10T20:58:11.823Z,75.83
2018-07-10T21:00:50.444Z,76.21
2018-07-10T21:04:25.913Z,76.34
2018-07-10T21:06:57.182Z,75.08
2018-07-10T21:09:35.167Z,74.92
2018-07-10T21:12:11.593Z,75.96
2018-07-10T21:15:17.193Z,75.83
2018-07-10T21:17:57.705Z,74.58
2018-07-10T21:20:35.614Z,74.72
2018-07-10T21:23:14.014Z,75.39
2018-07-10T21:25:51.514Z,76.34
2018-07-10T21:28:31.217Z,77.82
2018-07-10T21:31:08.190Z,78.65
2018-07-10T21:33:43.537Z,80.14
2018-07-10T21:36:17.985Z,81.58
2018-07-10T21:39:04.052Z,80.85
2018-07-10T21:41:53.507Z,81.48
2018-07-10T21:44:39.522Z,80.28
2018-07-10T21:47:46.106Z,80.15
2018-07-10T21:50:23.522Z,79.50
2018-07-10T21:52:51.565Z,80.31
2018-07-10T21:55:20.216Z,80.28
2018-07-10T21:57:48.506Z,78.90
2018-07-10T22:00:17.103Z,78.79
2018-07-10T22:02:45.171Z,78.08
2018-07-10T22:05:13.176Z,76.79
2018-07-10T22:07:41.339Z,75.67
2018-07-10T22:10:09.362Z,75.82
2018-07-10T22:12:42.627Z,75.87
2018-07-10T22:15:11.470Z,75.39
2018-07-10T22:17:39.834Z,76.71
2018-07-10T22:20:08.607Z,76.75
2018-07-10T22:22:36.692Z,77.34
2018-07-10T22:25:06.522Z,77.46
2018-07-10T22:27:36.881Z,77.79
2018-07-10T22:30:10.488Z,77.27
2018-07-10T22:32:44.947Z,77.58
2018-07-10T22:35:14.532Z,76.53
2018-07-10T22:37:42.638Z,76.42
2018-07-10T22:40:11.088Z,75.66
2018-07-10T22:42:39.089Z,75.20
2018-07-10T22:45:07.130Z,75.28
2018-07-10T22:47:38.305Z,75.33
2018-07-10T22:50:08.499Z,74.47
2018-07-10T22:52:42.737Z,75.16
2018-07-10T22:55:11.402Z,75.50
2018-07-10T22:57:39.422Z,76.25
2018-07-10T23:00:07.430Z,76.00
2018-07-10T23:02:35.166Z,76.84
2018-07-10T23:05:03.030Z,76.20
2018-07-10T23:07:30.991Z,75.85
2018-07-10T23:09:58.841Z,75.78
2018-07-10T23:12:26.707Z,75.16
2018-07-10T23:14:54.570Z,75.76
2018-07-10T23:17:22.371Z,76.08
2018-07-10T23:19:50.275Z,75.03
2018-07-10T23:22:18.829Z,77.16
2018-07-10T23:24:46.715Z,77.17
2018-07-10T23:27:14.583Z,76.47
2018-07-10T23:29:42.466Z,76.66
2018-07-10T23:32:10.343Z,77.43
2018-07-10T23:34:38.220Z,76.71
2018-07-10T23:37:12.154Z,76.53
2018-07-10T23:39:46.683Z,76.07
2018-07-10T23:42:30.075Z,75.22
2018-07-10T23:45:01.667Z,74.02
2018-07-10T23:47:32.137Z,73.03
2018-07-10T23:50:07.486Z,74.04
2018-07-10T23:53:53.686Z,74.86
2018-07-10T23:56:21.971Z,78.81
2018-07-10T23:58:50.769Z,77.25
